Time;durP1;ratioP1;P1;durP2;ratioP2;P2;SDS_P1;SDS_P2;PMS_P1;PMS_P2;Temp;Humidity;BMP_temperature;BMP_pressure;BME280_temperature;BME280_humidity;BME280_pressure;Samples;Min_cycle;Max_cycle;Signal;HPM_P1;HPM_P2
2023/10/12 00:02:09;;;;;;;14.05;8.30;;;;;;;;;;5013715;28;20861;-58
2023/10/12 00:04:38;;;;;;;14.43;8.63;;;;;;;;;;5013760;28;20962;-58
2023/10/12 00:07:15;;;;;;;14.88;8.93;;;;;;;;;;5013100;28;20448;-58
2023/10/12 00:09:40;;;;;;;14.80;8.77;;;;;;;;;;5013588;28;20424;-58
2023/10/12 00:12:11;;;;;;;14.63;8.75;;;;;;;;;;5013593;28;20797;-58
2023/10/12 00:14:37;;;;;;;14.88;9.68;;;;;;;;;;5013869;28;20930;-58
2023/10/12 00:17:05;;;;;;;16.87;9.80;;;;;;;;;;5013202;28;20411;-57
2023/10/12 00:19:30;;;;;;;16.33;9.35;;;;;;;;;;5015367;28;20397;-58
2023/10/12 00:22:00;;;;;;;16.07;9.50;;;;;;;;;;5019045;28;20409;-58
2023/10/12 00:24:25;;;;;;;16.35;9.52;;;;;;;;;;5025412;28;20419;-58
2023/10/12 00:26:50;;;;;;;16.23;9.53;;;;;;;;;;5025172;28;20397;-59
2023/10/12 00:29:18;;;;;;;18.53;10.03;;;;;;;;;;5020553;28;20466;-58
2023/10/12 00:31:43;;;;;;;16.42;9.45;;;;;;;;;;5023371;28;20414;-58
2023/10/12 00:34:11;;;;;;;15.97;10.00;;;;;;;;;;5016263;28;20411;-58
2023/10/12 00:36:37;;;;;;;16.50;10.33;;;;;;;;;;5023564;28;20465;-58
2023/10/12 00:39:09;;;;;;;16.67;11.25;;;;;;;;;;5020150;28;20922;-59
2023/10/12 00:41:36;;;;;;;18.17;10.73;;;;;;;;;;5016528;28;20420;-58
2023/10/12 00:44:12;;;;;;;17.15;10.30;;;;;;;;;;5021760;28;20768;-58
2023/10/12 00:49:17;;;;;;;18.27;11.70;;;;;;;;;;5021988;28;20455;-58
2023/10/12 00:51:50;;;;;;;16.80;10.63;;;;;;;;;;5017101;28;20479;-59
2023/10/12 00:54:40;;;;;;;14.27;10.63;;;;;;;;;;5015586;28;20416;-58
2023/10/12 00:57:06;;;;;;;23.77;11.85;;;;;;;;;;5021500;28;20886;-59
2023/10/12 00:59:31;;;;;;;22.73;12.90;;;;;;;;;;5021711;28;20395;-59
2023/10/12 01:01:58;;;;;;;20.17;12.10;;;;;;;;;;5015973;28;20430;-59
2023/10/12 01:04:24;;;;;;;20.58;12.55;;;;;;;;;;5016355;28;20413;-59
2023/10/12 01:06:49;;;;;;;20.73;12.60;;;;;;;;;;5018143;28;20500;-59
2023/10/12 01:09:20;;;;;;;20.47;13.10;;;;;;;;;;5015333;28;20480;-59
2023/10/12 01:11:52;;;;;;;20.58;12.38;;;;;;;;;;5016596;28;20435;-59
2023/10/12 01:14:17;;;;;;;17.42;12.00;;;;;;;;;;5005387;28;20408;-59
2023/10/12 01:16:46;;;;;;;20.07;13.23;;;;;;;;;;5003662;28;20415;-59
2023/10/12 01:19:20;;;;;;;22.35;13.10;;;;;;;;;;5004859;28;20471;-59
2023/10/12 01:21:46;;;;;;;20.52;12.93;;;;;;;;;;5000375;28;20511;-59
2023/10/12 01:24:12;;;;;;;21.52;13.60;;;;;;;;;;4997481;28;20833;-59
2023/10/12 01:26:37;;;;;;;23.27;13.77;;;;;;;;;;4996259;28;20484;-59
2023/10/12 01:29:03;;;;;;;23.50;13.57;;;;;;;;;;5006000;28;20401;-58
2023/10/12 01:31:29;;;;;;;21.67;14.30;;;;;;;;;;5003490;28;20405;-59
2023/10/12 01:33:54;;;;;;;20.30;13.80;;;;;;;;;;5009337;28;20904;-59
2023/10/12 01:36:21;;;;;;;22.80;14.40;;;;;;;;;;5004341;28;20468;-59
2023/10/12 01:38:47;;;;;;;22.33;14.47;;;;;;;;;;5005313;28;20408;-59
2023/10/12 01:41:12;;;;;;;26.55;15.95;;;;;;;;;;5004799;28;20419;-59
2023/10/12 01:43:38;;;;;;;24.73;15.30;;;;;;;;;;5002995;28;20473;-59
2023/10/12 01:46:09;;;;;;;22.33;14.98;;;;;;;;;;4997566;28;20737;-59
2023/10/12 01:48:34;;;;;;;24.60;14.77;;;;;;;;;;4997362;28;20885;-60
2023/10/12 01:51:03;;;;;;;25.07;15.80;;;;;;;;;;4996031;28;20762;-59
2023/10/12 01:53:32;;;;;;;24.90;15.40;;;;;;;;;;5003753;28;20409;-60
2023/10/12 01:55:58;;;;;;;24.85;15.93;;;;;;;;;;5004664;28;20393;-59
2023/10/12 01:58:27;;;;;;;22.80;14.83;;;;;;;;;;5002776;28;20444;-59
2023/10/12 02:00:53;;;;;;;22.92;14.27;;;;;;;;;;5003999;28;20419;-59
2023/10/12 02:03:26;;;;;;;22.57;15.37;;;;;;;;;;5003325;28;20843;-59
2023/10/12 02:05:58;;;;;;;23.27;14.88;;;;;;;;;;5003112;28;20411;-59
2023/10/12 02:08:26;;;;;;;22.52;15.30;;;;;;;;;;5001283;28;20486;-59
2023/10/12 02:11:05;;;;;;;19.30;13.30;;;;;;;;;;4995104;28;20782;-59
2023/10/12 02:13:33;;;;;;;23.38;15.20;;;;;;;;;;5015257;28;20395;-59
2023/10/12 02:16:00;;;;;;;19.90;13.60;;;;;;;;;;5016585;28;20424;-59
2023/10/12 02:18:25;;;;;;;19.30;12.82;;;;;;;;;;5014746;28;20387;-59
2023/10/12 02:21:07;;;;;;;17.37;11.80;;;;;;;;;;5023333;28;20419;-59
2023/10/12 02:23:38;;;;;;;19.38;11.73;;;;;;;;;;5020290;28;20502;-59
2023/10/12 02:28:53;;;;;;;16.20;10.68;;;;;;;;;;5015225;28;20940;-59
2023/10/12 02:31:19;;;;;;;16.80;10.13;;;;;;;;;;5014322;28;21931;-59
2023/10/12 02:33:44;;;;;;;18.15;9.98;;;;;;;;;;5015292;28;20896;-59
2023/10/12 02:36:09;;;;;;;18.73;11.27;;;;;;;;;;5015799;28;20415;-58
2023/10/12 02:38:35;;;;;;;17.57;10.00;;;;;;;;;;5023023;28;20471;-59
2023/10/12 02:41:00;;;;;;;19.93;11.73;;;;;;;;;;5014087;28;20424;-59
2023/10/12 02:43:27;;;;;;;20.77;10.97;;;;;;;;;;5016289;28;20460;-59
2023/10/12 02:45:53;;;;;;;18.48;10.07;;;;;;;;;;5022964;28;20409;-59
2023/10/12 02:48:23;;;;;;;13.97;8.10;;;;;;;;;;5018454;28;20403;-59
2023/10/12 02:50:57;;;;;;;15.10;8.20;;;;;;;;;;5019050;28;20410;-59
2023/10/12 02:53:29;;;;;;;16.00;9.23;;;;;;;;;;5018040;28;20518;-59
2023/10/12 02:55:58;;;;;;;14.00;8.10;;;;;;;;;;5022813;28;20412;-59
2023/10/12 02:58:24;;;;;;;16.67;7.47;;;;;;;;;;5014429;28;20430;-59
2023/10/12 03:00:55;;;;;;;12.97;7.33;;;;;;;;;;5016191;28;20406;-59
2023/10/12 03:03:27;;;;;;;13.48;6.82;;;;;;;;;;5020993;28;20415;-59
2023/10/12 03:05:54;;;;;;;12.85;7.07;;;;;;;;;;5014367;28;20434;-59
2023/10/12 03:08:20;;;;;;;15.68;7.70;;;;;;;;;;5019433;28;20391;-59
2023/10/12 03:11:01;;;;;;;13.23;7.30;;;;;;;;;;5000663;28;20409;-59
2023/10/12 03:13:33;;;;;;;15.10;7.70;;;;;;;;;;5001725;28;20424;-59
2023/10/12 03:16:03;;;;;;;17.25;8.50;;;;;;;;;;5001801;28;20434;-59
2023/10/12 03:18:28;;;;;;;13.70;7.78;;;;;;;;;;5003669;28;20828;-59
2023/10/12 03:21:06;;;;;;;13.33;8.70;;;;;;;;;;5005871;28;20406;-59
2023/10/12 03:23:33;;;;;;;15.27;8.45;;;;;;;;;;5001924;28;20611;-59
2023/10/12 03:26:04;;;;;;;14.27;8.10;;;;;;;;;;5000839;28;20515;-59
2023/10/12 03:28:29;;;;;;;15.75;7.57;;;;;;;;;;5012141;28;20398;-59
2023/10/12 03:30:57;;;;;;;15.60;8.27;;;;;;;;;;4997202;28;20413;-59
2023/10/12 03:33:29;;;;;;;16.45;8.63;;;;;;;;;;5013144;28;20460;-59
2023/10/12 03:38:38;;;;;;;15.90;7.47;;;;;;;;;;5019313;28;20410;-59
2023/10/12 03:43:50;;;;;;;15.23;7.97;;;;;;;;;;5011390;28;20516;-58
2023/10/12 03:46:26;;;;;;;14.65;7.38;;;;;;;;;;5000335;28;20397;-59
2023/10/12 03:49:04;;;;;;;15.67;7.67;;;;;;;;;;5005471;28;20401;-59
2023/10/12 03:51:44;;;;;;;15.88;7.35;;;;;;;;;;4992206;28;20836;-59
2023/10/12 03:54:26;;;;;;;14.32;7.35;;;;;;;;;;4992103;28;20479;-59
2023/10/12 03:56:53;;;;;;;14.23;7.90;;;;;;;;;;4996281;28;20407;-59
2023/10/12 03:59:26;;;;;;;14.97;7.00;;;;;;;;;;5000574;28;20913;-59
2023/10/12 04:01:54;;;;;;;15.80;7.60;;;;;;;;;;5000794;28;20882;-59
2023/10/12 04:04:21;;;;;;;15.07;7.47;;;;;;;;;;4999997;28;20497;-59
2023/10/12 04:07:04;;;;;;;17.70;8.80;;;;;;;;;;5000911;28;20464;-59
2023/10/12 04:09:43;;;;;;;8.63;3.40;;;;;;;;;;5001507;28;20442;-59
2023/10/12 04:14:53;;;;;;;7.35;3.17;;;;;;;;;;4994000;28;20823;-59
2023/10/12 04:17:39;;;;;;;5.50;2.57;;;;;;;;;;4994047;28;20411;-59
2023/10/12 04:22:41;;;;;;;4.17;1.50;;;;;;;;;;5001579;28;20401;-59
2023/10/12 04:25:13;;;;;;;3.03;1.70;;;;;;;;;;5000884;28;20486;-59
2023/10/12 04:27:39;;;;;;;3.58;1.60;;;;;;;;;;5005530;28;20884;-59
2023/10/12 04:30:19;;;;;;;2.78;1.30;;;;;;;;;;5001669;28;20461;-59
2023/10/12 04:38:17;;;;;;;2.65;1.08;;;;;;;;;;4997917;28;20479;-59
2023/10/12 04:41:13;;;;;;;2.15;1.17;;;;;;;;;;4992966;28;20690;-59
2023/10/12 04:43:28;;;;;;;2.53;1.20;;;;;;;;;;5001231;28;20425;-59
2023/10/12 04:46:26;;;;;;;2.93;1.20;;;;;;;;;;5002050;28;20470;-59
2023/10/12 04:48:41;;;;;;;2.90;1.10;;;;;;;;;;5002987;28;20441;-59
2023/10/12 04:51:07;;;;;;;2.42;1.50;;;;;;;;;;5000699;28;20491;-59
2023/10/12 04:53:53;;;;;;;2.80;1.17;;;;;;;;;;5000690;28;20444;-59
2023/10/12 04:56:19;;;;;;;2.20;1.17;;;;;;;;;;5000891;28;20831;-59
2023/10/12 04:58:56;;;;;;;4.10;1.60;;;;;;;;;;4993720;28;20497;-58
2023/10/12 05:01:28;;;;;;;3.30;1.90;;;;;;;;;;4993223;28;20843;-58
2023/10/12 05:04:08;;;;;;;3.43;1.60;;;;;;;;;;4995272;28;20432;-58
2023/10/12 05:06:36;;;;;;;3.45;1.67;;;;;;;;;;5013018;28;20903;-59
2023/10/12 05:09:10;;;;;;;3.20;1.60;;;;;;;;;;5018814;28;20421;-59
2023/10/12 05:11:36;;;;;;;3.63;1.70;;;;;;;;;;5024813;28;20477;-58
2023/10/12 05:14:11;;;;;;;3.30;1.80;;;;;;;;;;5015393;28;20451;-59
2023/10/12 05:16:42;;;;;;;2.22;1.40;;;;;;;;;;5017954;28;20913;-59
2023/10/12 05:19:07;;;;;;;2.90;1.30;;;;;;;;;;5018039;28;20404;-59
2023/10/12 05:21:33;;;;;;;2.10;1.10;;;;;;;;;;5021334;28;20420;-59
2023/10/12 05:23:58;;;;;;;1.77;1.20;;;;;;;;;;5019277;28;20954;-59
2023/10/12 05:26:25;;;;;;;2.97;1.27;;;;;;;;;;5019143;28;20407;-59
2023/10/12 05:29:09;;;;;;;1.67;1.23;;;;;;;;;;5020759;28;20542;-59
2023/10/12 05:31:48;;;;;;;2.03;1.00;;;;;;;;;;5022495;28;20915;-59
2023/10/12 05:34:32;;;;;;;1.45;1.10;;;;;;;;;;5018923;28;20464;-59
2023/10/12 05:36:59;;;;;;;1.88;1.20;;;;;;;;;;5016625;28;20451;-58
2023/10/12 05:39:27;;;;;;;2.35;1.20;;;;;;;;;;5021317;28;20400;-59
2023/10/12 05:41:56;;;;;;;2.03;1.20;;;;;;;;;;5022845;28;20403;-59
2023/10/12 05:44:26;;;;;;;2.03;1.20;;;;;;;;;;5018966;28;20388;-59
2023/10/12 05:46:58;;;;;;;1.95;1.20;;;;;;;;;;5017990;28;20421;-59
2023/10/12 05:49:24;;;;;;;3.40;1.35;;;;;;;;;;5019582;28;20495;-59
2023/10/12 05:51:49;;;;;;;2.57;1.50;;;;;;;;;;5019496;28;20491;-59
2023/10/12 05:54:19;;;;;;;2.10;1.42;;;;;;;;;;5016499;28;20413;-59
2023/10/12 05:56:44;;;;;;;2.67;1.42;;;;;;;;;;5020271;28;20824;-59
2023/10/12 05:59:12;;;;;;;3.00;1.30;;;;;;;;;;5023221;28;20443;-59
2023/10/12 06:01:38;;;;;;;2.75;1.30;;;;;;;;;;5018319;28;20435;-60
2023/10/12 06:04:05;;;;;;;3.95;1.42;;;;;;;;;;5018957;28;20427;-59
2023/10/12 06:06:34;;;;;;;4.72;1.55;;;;;;;;;;5019585;28;20399;-59
2023/10/12 06:08:59;;;;;;;5.70;1.77;;;;;;;;;;5016686;28;20403;-59
2023/10/12 06:11:26;;;;;;;7.60;1.40;;;;;;;;;;5019600;28;20401;-59
2023/10/12 06:13:52;;;;;;;5.18;1.27;;;;;;;;;;5022600;28;20482;-58
2023/10/12 06:16:20;;;;;;;6.13;1.63;;;;;;;;;;5015481;28;20511;-59
2023/10/12 06:18:45;;;;;;;5.70;1.30;;;;;;;;;;5019702;28;20447;-59
2023/10/12 06:21:17;;;;;;;6.47;1.50;;;;;;;;;;5017317;28;20445;-59
2023/10/12 06:23:44;;;;;;;6.80;1.47;;;;;;;;;;5018494;28;20416;-59
2023/10/12 06:26:17;;;;;;;5.47;1.33;;;;;;;;;;5016662;28;20409;-59
2023/10/12 06:28:42;;;;;;;6.15;1.50;;;;;;;;;;5019105;28;20395;-58
2023/10/12 06:31:08;;;;;;;5.13;1.43;;;;;;;;;;5022002;28;20422;-58
2023/10/12 06:33:33;;;;;;;6.90;1.58;;;;;;;;;;5016856;28;20403;-58
2023/10/12 06:35:58;;;;;;;6.53;1.80;;;;;;;;;;5014614;28;20439;-58
2023/10/12 06:38:36;;;;;;;8.00;1.83;;;;;;;;;;5013937;28;20997;-58
2023/10/12 06:41:27;;;;;;;8.43;2.30;;;;;;;;;;5019234;28;20913;-59
2023/10/12 06:46:15;;;;;;;7.20;1.73;;;;;;;;;;5013756;28;20831;-58
2023/10/12 06:48:44;;;;;;;8.40;2.05;;;;;;;;;;5020046;28;20414;-58
2023/10/12 06:51:13;;;;;;;7.77;2.30;;;;;;;;;;5017878;28;20486;-58
2023/10/12 06:53:40;;;;;;;7.35;1.88;;;;;;;;;;5014703;28;20403;-59
2023/10/12 06:56:28;;;;;;;8.93;2.10;;;;;;;;;;5013842;28;20439;-59
2023/10/12 06:59:21;;;;;;;10.25;2.20;;;;;;;;;;5022656;28;20466;-59
2023/10/12 07:04:13;;;;;;;6.47;1.73;;;;;;;;;;5018363;28;20800;-59
2023/10/12 07:06:39;;;;;;;8.47;2.00;;;;;;;;;;5021858;28;20794;-59
2023/10/12 07:09:05;;;;;;;9.70;2.10;;;;;;;;;;5021540;28;20407;-59
2023/10/12 07:11:31;;;;;;;6.97;1.90;;;;;;;;;;5016134;28;20740;-58
2023/10/12 07:13:57;;;;;;;8.87;1.97;;;;;;;;;;5013712;28;20761;-59
2023/10/12 07:16:22;;;;;;;7.75;1.90;;;;;;;;;;5021713;28;20421;-59
2023/10/12 07:18:49;;;;;;;7.23;1.87;;;;;;;;;;5016466;28;20439;-59
2023/10/12 07:21:21;;;;;;;7.28;1.75;;;;;;;;;;5013932;28;20405;-59
2023/10/12 07:23:52;;;;;;;8.90;2.15;;;;;;;;;;5013335;28;20425;-59
2023/10/12 07:26:17;;;;;;;8.13;2.17;;;;;;;;;;5013953;28;20415;-59
2023/10/12 07:28:43;;;;;;;8.23;2.10;;;;;;;;;;5014061;28;20415;-59
2023/10/12 07:33:59;;;;;;;8.70;2.30;;;;;;;;;;5022277;28;20404;-59
2023/10/12 07:39:21;;;;;;;6.20;1.98;;;;;;;;;;5015180;28;20442;-59
2023/10/12 07:41:54;;;;;;;6.47;2.10;;;;;;;;;;5013602;28;20420;-59
2023/10/12 07:44:21;;;;;;;7.15;2.20;;;;;;;;;;5021159;28;20543;-59
2023/10/12 07:46:46;;;;;;;6.85;2.20;;;;;;;;;;5020079;28;20403;-59
2023/10/12 07:52:13;;;;;;;6.13;2.15;;;;;;;;;;5021798;28;20470;-59
2023/10/12 07:57:13;;;;;;;6.57;2.40;;;;;;;;;;5012972;28;20403;-59
2023/10/12 07:59:48;;;;;;;5.28;2.00;;;;;;;;;;5015003;28;20407;-59
2023/10/12 08:02:15;;;;;;;4.87;1.80;;;;;;;;;;5021512;28;20993;-59
2023/10/12 08:04:56;;;;;;;4.75;1.73;;;;;;;;;;5021170;28;20953;-59
2023/10/12 08:07:26;;;;;;;4.68;1.55;;;;;;;;;;5013667;28;20401;-59
2023/10/12 08:09:52;;;;;;;3.80;1.42;;;;;;;;;;5013719;28;20407;-59
2023/10/12 08:12:24;;;;;;;4.55;1.50;;;;;;;;;;5021299;28;20396;-59
2023/10/12 08:14:53;;;;;;;4.65;1.42;;;;;;;;;;5021493;28;20407;-59
2023/10/12 08:17:25;;;;;;;3.63;1.20;;;;;;;;;;5013139;28;20822;-59
2023/10/12 08:20:03;;;;;;;4.10;1.50;;;;;;;;;;5014305;28;20851;-59
2023/10/12 08:22:36;;;;;;;3.23;1.20;;;;;;;;;;5021206;28;20403;-59
2023/10/12 08:25:04;;;;;;;2.88;0.90;;;;;;;;;;5020672;28;20781;-60
2023/10/12 08:27:39;;;;;;;4.60;1.23;;;;;;;;;;5015568;28;20796;-60
2023/10/12 08:30:12;;;;;;;3.70;1.20;;;;;;;;;;5019523;28;20413;-59
2023/10/12 08:32:42;;;;;;;5.43;1.23;;;;;;;;;;5020628;28;20425;-59
2023/10/12 08:37:56;;;;;;;2.53;0.80;;;;;;;;;;5015131;28;20449;-59
2023/10/12 08:40:19;;;;;;;2.58;0.80;;;;;;;;;;5021887;28;20951;-59
2023/10/12 08:43:06;;;;;;;2.88;1.10;;;;;;;;;;5017402;28;20812;-59
2023/10/12 08:45:31;;;;;;;3.58;0.90;;;;;;;;;;5016202;28;20922;-59
2023/10/12 08:48:01;;;;;;;2.03;0.70;;;;;;;;;;5017275;28;20399;-58
2023/10/12 08:53:13;;;;;;;2.50;0.90;;;;;;;;;;5020940;28;20408;-59
2023/10/12 08:55:38;;;;;;;3.17;0.97;;;;;;;;;;5022506;28;20474;-58
2023/10/12 08:58:20;;;;;;;3.08;1.10;;;;;;;;;;5019102;28;20554;-58
2023/10/12 09:01:23;;;;;;;2.80;1.00;;;;;;;;;;5024041;28;21181;-59
2023/10/12 09:03:38;;;;;;;2.10;0.90;;;;;;;;;;5024246;28;20459;-58
2023/10/12 09:06:13;;;;;;;1.95;0.82;;;;;;;;;;5016269;28;20443;-58
2023/10/12 09:08:39;;;;;;;1.33;0.82;;;;;;;;;;5017976;28;20409;-58
2023/10/12 09:13:37;;;;;;;2.80;0.90;;;;;;;;;;5016067;28;20905;-58
2023/10/12 09:16:04;;;;;;;1.67;0.67;;;;;;;;;;5019780;28;20472;-58
2023/10/12 09:18:30;;;;;;;2.08;0.70;;;;;;;;;;5020771;28;20407;-58
2023/10/12 09:23:46;;;;;;;2.80;0.88;;;;;;;;;;5017084;28;20484;-58
2023/10/12 09:26:15;;;;;;;2.67;0.90;;;;;;;;;;5016669;28;20915;-59
2023/10/12 09:29:05;;;;;;;3.25;0.70;;;;;;;;;;5016368;28;20415;-58
2023/10/12 09:36:22;;;;;;;2.95;0.90;;;;;;;;;;5017915;28;20409;-58
2023/10/12 09:38:48;;;;;;;2.17;1.02;;;;;;;;;;5016124;28;20860;-58
2023/10/12 09:41:14;;;;;;;1.70;0.80;;;;;;;;;;5022992;28;20411;-58
2023/10/12 09:43:40;;;;;;;3.80;1.13;;;;;;;;;;5016235;28;20416;-58
2023/10/12 09:46:07;;;;;;;2.50;1.10;;;;;;;;;;5015114;28;20425;-58
2023/10/12 09:48:38;;;;;;;2.40;0.97;;;;;;;;;;5015045;28;20396;-58
2023/10/12 09:51:06;;;;;;;2.03;1.02;;;;;;;;;;5019543;28;20558;-58
2023/10/12 09:53:36;;;;;;;1.92;1.10;;;;;;;;;;5016723;28;20537;-58
2023/10/12 09:56:10;;;;;;;2.30;0.90;;;;;;;;;;5022895;28;20445;-58
2023/10/12 09:58:43;;;;;;;2.97;1.15;;;;;;;;;;5022677;28;21017;-58
2023/10/12 10:01:15;;;;;;;1.93;1.10;;;;;;;;;;5019321;28;20750;-58
2023/10/12 10:03:47;;;;;;;2.17;1.23;;;;;;;;;;5017413;28;20413;-58
2023/10/12 10:06:20;;;;;;;2.17;1.40;;;;;;;;;;5023453;28;20506;-58
2023/10/12 10:08:51;;;;;;;2.10;1.50;;;;;;;;;;5023612;28;20399;-58
2023/10/12 10:11:23;;;;;;;2.97;1.50;;;;;;;;;;5017174;28;20469;-58
2023/10/12 10:13:49;;;;;;;2.40;1.50;;;;;;;;;;5017347;28;20493;-58
2023/10/12 10:16:17;;;;;;;3.25;1.70;;;;;;;;;;5022517;28;21032;-58
2023/10/12 10:18:45;;;;;;;3.60;1.80;;;;;;;;;;5022402;28;20403;-58
2023/10/12 10:21:11;;;;;;;4.90;2.40;;;;;;;;;;5015421;28;20539;-58
2023/10/12 10:23:42;;;;;;;5.38;3.30;;;;;;;;;;5013948;28;20412;-58
2023/10/12 10:26:23;;;;;;;6.68;3.88;;;;;;;;;;5021237;28;20482;-58
2023/10/12 10:28:55;;;;;;;6.32;4.10;;;;;;;;;;5015788;28;20459;-57
2023/10/12 10:31:25;;;;;;;5.50;3.92;;;;;;;;;;5016908;28;20378;-58
2023/10/12 10:33:51;;;;;;;6.97;4.63;;;;;;;;;;5015456;28;20427;-58
2023/10/12 10:36:17;;;;;;;6.88;4.63;;;;;;;;;;5022776;28;20430;-59
2023/10/12 10:41:38;;;;;;;5.82;4.10;;;;;;;;;;5015093;28;20484;-58
2023/10/12 10:44:05;;;;;;;6.68;4.50;;;;;;;;;;5014359;28;20423;-58
2023/10/12 10:46:31;;;;;;;6.57;4.50;;;;;;;;;;5014392;28;20405;-58
2023/10/12 10:48:56;;;;;;;6.55;4.07;;;;;;;;;;5015629;28;20410;-58
2023/10/12 10:51:27;;;;;;;8.30;4.70;;;;;;;;;;5021281;28;20425;-58
2023/10/12 10:53:53;;;;;;;8.18;5.20;;;;;;;;;;5013708;28;20400;-58
2023/10/12 10:56:38;;;;;;;7.83;4.97;;;;;;;;;;5015256;28;20406;-58
2023/10/12 10:59:06;;;;;;;7.68;5.25;;;;;;;;;;5015188;28;20418;-58
2023/10/12 11:01:31;;;;;;;7.28;5.47;;;;;;;;;;5014571;28;20399;-58
2023/10/12 11:03:58;;;;;;;8.70;5.43;;;;;;;;;;5022296;28;20461;-58
2023/10/12 11:06:25;;;;;;;7.63;5.27;;;;;;;;;;5016783;28;20449;-58
2023/10/12 11:09:06;;;;;;;7.03;4.88;;;;;;;;;;5016390;28;20405;-59
2023/10/12 11:11:49;;;;;;;5.95;3.63;;;;;;;;;;5021692;28;21483;-58
2023/10/12 11:14:17;;;;;;;5.50;3.50;;;;;;;;;;5021360;28;20481;-59
2023/10/12 11:16:46;;;;;;;5.55;3.38;;;;;;;;;;5015880;28;20459;-59
2023/10/12 11:19:11;;;;;;;5.53;3.53;;;;;;;;;;5015512;28;20412;-59
2023/10/12 11:21:36;;;;;;;5.63;3.70;;;;;;;;;;5020230;28;20401;-58
2023/10/12 11:24:02;;;;;;;7.03;4.10;;;;;;;;;;5019093;28;20547;-59
2023/10/12 11:26:28;;;;;;;5.93;3.80;;;;;;;;;;5017624;28;20400;-59
2023/10/12 11:29:01;;;;;;;6.32;3.63;;;;;;;;;;5014282;28;20445;-59
2023/10/12 11:31:32;;;;;;;5.93;4.10;;;;;;;;;;5013911;28;20385;-59
2023/10/12 11:33:58;;;;;;;6.22;4.03;;;;;;;;;;5016666;28;20512;-59
2023/10/12 11:36:24;;;;;;;5.15;3.45;;;;;;;;;;5019783;28;20799;-59
2023/10/12 11:38:59;;;;;;;4.68;3.40;;;;;;;;;;5013891;28;20503;-58
2023/10/12 11:41:25;;;;;;;5.35;3.50;;;;;;;;;;5019605;28;20392;-58
2023/10/12 11:43:53;;;;;;;5.00;3.35;;;;;;;;;;5016640;28;21062;-58
2023/10/12 11:46:18;;;;;;;5.10;3.60;;;;;;;;;;5029585;28;20407;-59
2023/10/12 11:48:43;;;;;;;5.23;3.80;;;;;;;;;;5024535;28;20440;-59
2023/10/12 11:51:16;;;;;;;7.77;4.00;;;;;;;;;;5013373;28;20404;-59
2023/10/12 11:53:41;;;;;;;5.93;3.88;;;;;;;;;;5014688;28;20445;-58
2023/10/12 11:56:14;;;;;;;6.47;4.00;;;;;;;;;;5020696;28;20848;-58
2023/10/12 11:58:40;;;;;;;5.17;3.90;;;;;;;;;;5021701;28;20475;-58
2023/10/12 12:01:08;;;;;;;6.60;4.13;;;;;;;;;;5014793;28;20461;-58
2023/10/12 12:03:39;;;;;;;5.70;4.00;;;;;;;;;;5011815;28;20940;-58
2023/10/12 12:06:09;;;;;;;6.15;4.38;;;;;;;;;;5021302;28;20483;-59
2023/10/12 12:08:35;;;;;;;7.60;4.90;;;;;;;;;;5019790;28;20399;-58
2023/10/12 12:11:03;;;;;;;7.05;4.70;;;;;;;;;;5015616;28;20482;-59
2023/10/12 12:13:28;;;;;;;7.15;5.20;;;;;;;;;;5021225;28;20420;-58
2023/10/12 12:15:55;;;;;;;7.00;4.97;;;;;;;;;;5012426;28;20440;-59
2023/10/12 12:18:20;;;;;;;8.57;5.72;;;;;;;;;;5016139;28;20431;-59
2023/10/12 12:20:47;;;;;;;6.47;4.80;;;;;;;;;;5020373;28;20407;-59
2023/10/12 12:23:13;;;;;;;8.85;5.57;;;;;;;;;;5011861;28;20416;-59
2023/10/12 12:25:39;;;;;;;7.15;5.32;;;;;;;;;;5018462;28;20736;-59
2023/10/12 12:28:07;;;;;;;8.50;5.80;;;;;;;;;;5017682;28;20809;-59
2023/10/12 12:30:35;;;;;;;8.75;6.20;;;;;;;;;;5017679;28;20453;-59
2023/10/12 12:33:03;;;;;;;7.30;6.00;;;;;;;;;;5020910;28;20407;-60
2023/10/12 12:35:29;;;;;;;7.23;5.73;;;;;;;;;;5015208;28;20439;-59
2023/10/12 12:38:00;;;;;;;8.93;6.57;;;;;;;;;;5020277;28;20435;-59
2023/10/12 12:40:29;;;;;;;7.22;5.38;;;;;;;;;;5012837;28;20884;-59
2023/10/12 12:42:55;;;;;;;9.32;6.13;;;;;;;;;;5018661;28;20410;-59
2023/10/12 12:45:20;;;;;;;8.57;6.63;;;;;;;;;;5014005;28;20400;-59
2023/10/12 12:47:45;;;;;;;8.50;6.10;;;;;;;;;;5013293;28;21441;-58
2023/10/12 12:50:11;;;;;;;8.63;5.78;;;;;;;;;;5020586;28;20839;-59
2023/10/12 12:52:40;;;;;;;9.77;6.63;;;;;;;;;;5014049;28;20489;-58
2023/10/12 12:55:10;;;;;;;8.05;6.32;;;;;;;;;;5020645;28;20417;-59
2023/10/12 12:57:38;;;;;;;8.18;5.82;;;;;;;;;;5021305;28;20964;-59
2023/10/12 13:00:08;;;;;;;9.35;6.88;;;;;;;;;;5012663;28;20496;-59
2023/10/12 13:02:33;;;;;;;10.52;7.38;;;;;;;;;;5013648;28;20766;-59
2023/10/12 13:05:00;;;;;;;11.37;7.43;;;;;;;;;;5020552;28;20421;-59
2023/10/12 13:07:25;;;;;;;8.70;6.70;;;;;;;;;;5012358;28;20482;-59
2023/10/12 13:09:51;;;;;;;8.70;6.22;;;;;;;;;;5021996;28;20893;-59
2023/10/12 13:12:16;;;;;;;9.50;7.10;;;;;;;;;;5028899;28;20440;-59
2023/10/12 13:14:42;;;;;;;12.40;8.13;;;;;;;;;;5014980;28;20969;-59
2023/10/12 13:17:09;;;;;;;12.43;7.00;;;;;;;;;;5012323;28;20450;-59
2023/10/12 13:19:34;;;;;;;11.48;7.97;;;;;;;;;;5020183;28;20395;-59
2023/10/12 13:21:59;;;;;;;10.77;8.50;;;;;;;;;;5014825;28;20415;-59
2023/10/12 13:24:25;;;;;;;9.80;7.30;;;;;;;;;;5011808;28;20400;-59
2023/10/12 13:26:51;;;;;;;9.13;7.35;;;;;;;;;;5013812;28;20423;-59
2023/10/12 13:29:17;;;;;;;11.20;7.75;;;;;;;;;;5017057;28;20414;-59
2023/10/12 13:31:42;;;;;;;9.73;6.90;;;;;;;;;;5016698;28;20411;-58
2023/10/12 13:34:10;;;;;;;11.17;7.17;;;;;;;;;;4998153;28;20415;-59
2023/10/12 13:36:36;;;;;;;13.73;9.02;;;;;;;;;;5001710;28;20753;-59
2023/10/12 13:39:03;;;;;;;10.70;7.50;;;;;;;;;;5001152;28;20779;-60
2023/10/12 13:41:29;;;;;;;10.30;7.32;;;;;;;;;;5006351;28;20404;-59
2023/10/12 13:43:54;;;;;;;9.57;6.85;;;;;;;;;;5009055;28;21198;-60
2023/10/12 13:46:20;;;;;;;11.73;7.50;;;;;;;;;;5008490;28;20400;-60
2023/10/12 13:48:48;;;;;;;11.53;8.10;;;;;;;;;;5008047;28;20407;-60
2023/10/12 13:51:20;;;;;;;11.83;8.17;;;;;;;;;;5008173;28;20442;-60
2023/10/12 13:53:46;;;;;;;11.75;7.93;;;;;;;;;;5009211;28;20857;-60
2023/10/12 13:56:11;;;;;;;14.03;8.47;;;;;;;;;;5002162;28;21011;-60
2023/10/12 13:58:37;;;;;;;13.82;8.43;;;;;;;;;;5010145;28;20810;-60
2023/10/12 14:01:04;;;;;;;14.50;8.17;;;;;;;;;;5001155;28;20419;-60
2023/10/12 14:03:34;;;;;;;15.40;9.47;;;;;;;;;;5004193;28;21098;-60
2023/10/12 14:06:00;;;;;;;15.18;9.63;;;;;;;;;;5008721;28;20973;-60
2023/10/12 14:08:28;;;;;;;14.67;8.83;;;;;;;;;;5007378;28;20401;-60
2023/10/12 14:10:54;;;;;;;17.55;9.40;;;;;;;;;;5008464;28;20416;-60
2023/10/12 14:13:19;;;;;;;13.87;8.73;;;;;;;;;;5011713;28;20738;-61
2023/10/12 14:15:44;;;;;;;11.75;7.55;;;;;;;;;;5007103;28;20756;-60
2023/10/12 14:18:11;;;;;;;10.98;7.18;;;;;;;;;;5004838;28;20456;-60
2023/10/12 14:20:37;;;;;;;12.88;7.50;;;;;;;;;;5000392;28;20411;-60
2023/10/12 14:23:09;;;;;;;12.52;7.97;;;;;;;;;;4999238;28;21048;-61
2023/10/12 14:25:35;;;;;;;12.77;8.57;;;;;;;;;;5002365;28;20393;-61
2023/10/12 14:28:00;;;;;;;14.27;9.47;;;;;;;;;;5007758;28;20409;-60
2023/10/12 14:30:31;;;;;;;13.80;9.53;;;;;;;;;;5006860;28;20401;-60
2023/10/12 14:32:57;;;;;;;18.88;12.13;;;;;;;;;;5019874;28;20396;-60
2023/10/12 14:35:29;;;;;;;11.60;8.23;;;;;;;;;;5021926;28;20394;-60
2023/10/12 14:37:55;;;;;;;15.37;9.83;;;;;;;;;;5015683;28;20766;-60
2023/10/12 14:40:20;;;;;;;11.82;9.20;;;;;;;;;;5014352;28;20874;-60
2023/10/12 14:42:46;;;;;;;14.00;10.02;;;;;;;;;;5022463;28;20411;-60
2023/10/12 14:45:15;;;;;;;19.10;11.63;;;;;;;;;;5014927;28;20435;-60
2023/10/12 14:47:41;;;;;;;11.82;8.48;;;;;;;;;;5015365;28;20442;-60
2023/10/12 14:50:16;;;;;;;22.17;14.45;;;;;;;;;;5022568;28;20443;-60
2023/10/12 14:52:42;;;;;;;30.48;18.20;;;;;;;;;;5022373;28;20391;-60
2023/10/12 14:55:14;;;;;;;22.58;16.13;;;;;;;;;;5015941;28;20498;-60
2023/10/12 14:57:39;;;;;;;23.73;15.77;;;;;;;;;;5014100;28;20399;-60
2023/10/12 15:00:10;;;;;;;21.77;15.00;;;;;;;;;;5014177;28;20411;-60
2023/10/12 15:02:36;;;;;;;30.33;19.90;;;;;;;;;;5014982;28;20756;-59
2023/10/12 15:05:01;;;;;;;24.17;17.48;;;;;;;;;;5014106;28;20416;-60
2023/10/12 15:07:27;;;;;;;20.73;15.20;;;;;;;;;;5022873;28;20448;-59
2023/10/12 15:09:52;;;;;;;19.93;14.20;;;;;;;;;;5022125;28;20403;-59
2023/10/12 15:12:17;;;;;;;16.67;13.20;;;;;;;;;;5015388;28;20423;-59
2023/10/12 15:14:46;;;;;;;20.00;13.85;;;;;;;;;;5014118;28;20551;-59
2023/10/12 15:17:14;;;;;;;18.45;13.77;;;;;;;;;;5016587;28;20416;-59
2023/10/12 15:19:39;;;;;;;16.60;13.15;;;;;;;;;;5015072;28;20401;-59
2023/10/12 15:22:06;;;;;;;16.10;11.97;;;;;;;;;;5014856;28;20834;-59
2023/10/12 15:24:37;;;;;;;15.97;12.70;;;;;;;;;;5017332;28;20434;-59
2023/10/12 15:27:02;;;;;;;14.37;11.03;;;;;;;;;;5020162;28;20446;-59
2023/10/12 15:29:28;;;;;;;15.77;11.23;;;;;;;;;;5017005;28;20903;-59
2023/10/12 15:31:53;;;;;;;16.07;11.50;;;;;;;;;;5013865;28;20414;-58
2023/10/12 15:34:18;;;;;;;16.20;11.88;;;;;;;;;;5021137;28;20441;-59
2023/10/12 15:36:44;;;;;;;13.20;9.70;;;;;;;;;;5016840;28;20402;-59
2023/10/12 15:39:15;;;;;;;16.83;10.87;;;;;;;;;;5020472;28;20827;-59
2023/10/12 15:41:41;;;;;;;12.67;9.47;;;;;;;;;;5020912;28;20431;-58